Terminal Aerodrome Forecast
Issued by NWS

Current Version | Previous Version | Text Only | Print | Product List | Glossary Off
Versions: 1 2 3 4 5 6 7 8 9 10 11 12 13 14 15 16 17 18 19 20 21 22 23 24 25 26 27 28 29 30 31 32 33

806
FTUS41 KRLX 280244 AAB
TAFCKB
TAF AMD
KCKB 280244Z 2803/2824 00000KT 6SM HZ SCT060
     FM280500 00000KT 4SM BR SCT045
     FM280700 00000KT 2SM BR BKN150
     FM281300 00000KT P6SM VCSH BKN150
     FM281500 25004KT 5SM SHRA VCTS BKN050CB
     FM282300 VRB03KT 6SM HZ OVC040=

USA.gov is the U.S. government's official web portal to all federal, state and local government web resources and services.